createdAt,value
2023-03-24T00:00:23.069Z,98337.78
2023-03-24T00:02:51.304Z,98353.28
2023-03-24T00:05:20.764Z,98362.56
2023-03-24T00:07:48.104Z,98394.91
2023-03-24T00:10:17.234Z,98394.31
2023-03-24T00:12:44.884Z,98383.16
2023-03-24T00:15:15.529Z,98424.78
2023-03-24T00:17:42.285Z,98427.69
2023-03-24T00:20:16.179Z,98443.75
2023-03-24T00:22:44.488Z,98542.44
2023-03-24T00:25:11.296Z,98551.56
2023-03-24T00:27:38.398Z,98541.03
2023-03-24T00:30:07.709Z,98532.00
2023-03-24T00:32:35.422Z,98534.84
2023-03-24T00:35:01.828Z,98546.59
2023-03-24T00:37:28.524Z,98575.28
2023-03-24T00:39:55.015Z,98561.47
2023-03-24T00:42:21.489Z,98570.38
2023-03-24T00:44:47.886Z,98580.66
2023-03-24T00:47:14.342Z,98596.09
2023-03-24T00:49:40.878Z,98611.94
2023-03-24T00:52:18.514Z,98604.16
2023-03-24T00:54:45.306Z,98607.44
2023-03-24T00:57:13.811Z,98639.97
2023-03-24T00:59:40.620Z,98642.41
2023-03-24T01:02:07.171Z,98661.13
2023-03-24T01:04:33.565Z,98660.91
2023-03-24T01:06:59.998Z,98687.66
2023-03-24T01:09:26.385Z,98697.94
2023-03-24T01:11:52.742Z,98711.09
2023-03-24T01:14:19.145Z,98728.38
2023-03-24T01:16:45.580Z,98737.38
2023-03-24T01:19:12.007Z,98736.53
2023-03-24T01:21:39.809Z,98740.44
2023-03-24T01:24:06.726Z,98757.69
2023-03-24T01:26:33.340Z,98776.19
2023-03-24T01:29:00.101Z,98772.47
2023-03-24T01:31:26.909Z,98769.81
2023-03-24T01:33:53.643Z,98758.88
2023-03-24T01:36:20.161Z,98771.81
2023-03-24T01:38:46.921Z,98777.13
2023-03-24T01:41:13.391Z,98784.91
2023-03-24T01:43:40.334Z,98786.31
2023-03-24T01:46:19.098Z,98804.81
2023-03-24T01:48:49.574Z,98812.47
2023-03-24T01:51:29.854Z,98811.22
2023-03-24T01:54:02.636Z,98801.28
2023-03-24T01:56:35.484Z,98796.44
2023-03-24T01:59:06.730Z,98797.88
2023-03-24T02:01:33.884Z,98804.66
2023-03-24T02:04:03.021Z,98800.53
2023-03-24T02:06:31.024Z,98795.59
2023-03-24T02:08:59.505Z,98813.00
2023-03-24T02:11:29.964Z,98822.63
2023-03-24T02:13:56.995Z,98838.47
2023-03-24T02:16:35.654Z,98826.75
2023-03-24T02:19:34.921Z,98822.88
2023-03-24T02:22:18.547Z,98836.50
2023-03-24T02:24:57.288Z,98844.75
2023-03-24T02:27:57.388Z,98840.81
2023-03-24T02:30:34.605Z,98830.13
2023-03-24T02:33:45.801Z,98820.66
2023-03-24T02:36:24.423Z,98822.31
2023-03-24T02:39:09.493Z,98817.81
2023-03-24T02:41:48.996Z,98828.72
2023-03-24T02:44:32.462Z,98813.75
2023-03-24T02:47:09.798Z,98801.81
2023-03-24T02:49:45.398Z,98822.16
2023-03-24T02:52:32.991Z,98816.22
2023-03-24T02:55:19.620Z,98812.09
2023-03-24T02:58:02.193Z,98798.53
2023-03-24T03:00:35.788Z,98815.38
2023-03-24T03:03:08.382Z,98824.03
2023-03-24T03:05:40.687Z,98797.31
2023-03-24T03:08:12.257Z,98805.94
2023-03-24T03:10:43.472Z,98831.41
2023-03-24T03:13:44.419Z,98819.72
2023-03-24T03:16:18.692Z,98817.88
2023-03-24T03:18:51.414Z,98804.13
2023-03-24T03:21:22.981Z,98792.63
2023-03-24T03:23:59.050Z,98783.97
2023-03-24T03:26:28.254Z,98786.06
2023-03-24T03:29:01.784Z,98781.13
2023-03-24T03:31:54.836Z,98783.16
2023-03-24T03:34:55.384Z,98785.84
2023-03-24T03:37:53.157Z,98773.28
2023-03-24T03:40:32.937Z,98752.06
2023-03-24T03:42:59.594Z,98734.00
2023-03-24T03:45:26.061Z,98716.53
2023-03-24T03:47:52.598Z,98717.56
2023-03-24T03:50:18.978Z,98730.34
2023-03-24T03:52:45.770Z,98748.44
2023-03-24T03:55:14.853Z,98742.25
2023-03-24T03:57:42.793Z,98731.97
2023-03-24T04:00:15.837Z,98729.47
2023-03-24T04:03:13.050Z,98725.56
2023-03-24T04:05:48.483Z,98718.13
2023-03-24T04:08:21.146Z,98710.13
2023-03-24T04:10:50.794Z,98726.38
2023-03-24T04:13:30.127Z,98734.59
2023-03-24T04:16:27.890Z,98740.56
2023-03-24T04:19:09.203Z,98737.06
2023-03-24T04:22:06.233Z,98730.69
2023-03-24T04:25:02.669Z,98745.91
2023-03-24T04:27:43.737Z,98734.22
2023-03-24T04:30:47.408Z,98755.78
2023-03-24T04:33:19.144Z,98759.91
2023-03-24T04:35:51.014Z,98757.84
2023-03-24T04:38:21.894Z,98764.19
2023-03-24T04:40:49.668Z,98762.97
2023-03-24T04:43:20.413Z,98752.94
2023-03-24T04:45:48.134Z,98766.72
2023-03-24T04:48:16.297Z,98773.50
2023-03-24T04:50:44.590Z,98776.38
2023-03-24T04:53:11.407Z,98786.06
2023-03-24T04:55:50.014Z,98781.97
2023-03-24T04:58:18.757Z,98761.22
2023-03-24T05:00:45.817Z,98780.34
2023-03-24T05:03:14.558Z,98780.13
2023-03-24T05:05:42.665Z,98782.81
2023-03-24T05:08:09.880Z,98793.09
2023-03-24T05:10:36.981Z,98783.88
2023-03-24T05:13:06.720Z,98788.00
2023-03-24T05:15:33.677Z,98795.78
2023-03-24T05:18:00.385Z,98795.78
2023-03-24T05:20:27.098Z,98788.81
2023-03-24T05:22:54.038Z,98792.94
2023-03-24T05:25:20.740Z,98771.16
2023-03-24T05:27:47.967Z,98775.69
2023-03-24T05:30:15.516Z,98782.66
2023-03-24T05:32:42.426Z,98805.50
2023-03-24T05:35:09.251Z,98809.81
2023-03-24T05:37:35.765Z,98826.09
2023-03-24T05:40:02.668Z,98814.34
2023-03-24T05:42:29.023Z,98811.91
2023-03-24T05:44:55.351Z,98826.53
2023-03-24T05:47:22.183Z,98843.81
2023-03-24T05:49:48.791Z,98690.53
2023-03-24T05:52:15.292Z,98490.53
2023-03-24T05:54:42.076Z,98395.81
2023-03-24T05:57:12.025Z,98327.31
2023-03-24T05:59:38.414Z,98341.28
2023-03-24T06:02:05.046Z,98324.31
2023-03-24T06:04:31.783Z,98335.94
2023-03-24T06:06:58.618Z,98318.22
2023-03-24T06:09:29.542Z,98370.94
2023-03-24T06:11:56.438Z,98390.81
2023-03-24T06:14:22.795Z,98393.66
2023-03-24T06:16:49.288Z,98381.50
2023-03-24T06:19:17.323Z,98374.28
2023-03-24T06:21:43.888Z,98411.28
2023-03-24T06:24:11.051Z,98449.09
2023-03-24T06:26:37.709Z,98464.41
2023-03-24T06:29:04.275Z,98485.03
2023-03-24T06:31:31.038Z,98489.13
2023-03-24T06:33:57.492Z,98522.94
2023-03-24T06:36:24.029Z,98491.75
2023-03-24T06:38:51.062Z,98432.94
2023-03-24T06:41:17.941Z,98386.88
2023-03-24T06:43:44.379Z,98386.41
2023-03-24T06:46:11.045Z,98402.75
2023-03-24T06:48:37.693Z,98444.81
2023-03-24T06:51:04.714Z,98447.31
2023-03-24T06:53:31.192Z,98476.19
2023-03-24T06:55:57.989Z,98478.31
2023-03-24T06:58:24.417Z,98492.72
2023-03-24T07:00:50.933Z,98488.19
2023-03-24T07:03:17.785Z,98484.47
2023-03-24T07:05:45.182Z,98480.53
2023-03-24T07:10:42.229Z,98558.72
2023-03-24T07:13:08.799Z,98569.88
2023-03-24T07:15:35.908Z,98568.38
2023-03-24T07:18:02.357Z,98567.34
2023-03-24T07:20:28.965Z,98570.84
2023-03-24T07:22:56.912Z,98582.78
2023-03-24T07:25:24.134Z,98609.81
2023-03-24T07:27:54.251Z,98619.31
2023-03-24T07:30:27.311Z,98651.09
2023-03-24T07:33:00.042Z,98723.06
2023-03-24T07:35:26.628Z,98752.97
2023-03-24T07:37:52.975Z,98774.44
2023-03-24T07:40:19.516Z,98804.53
2023-03-24T07:42:45.860Z,98829.09
2023-03-24T07:45:13.326Z,98853.63
2023-03-24T07:47:44.635Z,98906.19
2023-03-24T07:50:12.619Z,98958.13
2023-03-24T07:52:46.663Z,98985.31
2023-03-24T07:55:13.174Z,99008.22
2023-03-24T07:57:46.154Z,99036.63
2023-03-24T08:00:13.401Z,99063.19
2023-03-24T08:02:39.832Z,99075.38
2023-03-24T08:05:06.585Z,99115.34
2023-03-24T08:07:32.967Z,99129.16
2023-03-24T08:09:59.335Z,99140.47
2023-03-24T08:12:25.843Z,99131.22
2023-03-24T08:14:52.528Z,99151.00
2023-03-24T08:17:18.926Z,99188.31
2023-03-24T08:19:58.244Z,99203.38
2023-03-24T08:22:25.878Z,99208.75
2023-03-24T08:24:52.394Z,99222.97
2023-03-24T08:27:19.278Z,99218.44
2023-03-24T08:29:45.966Z,99211.25
2023-03-24T08:32:12.466Z,99211.06
2023-03-24T08:34:38.858Z,99210.25
2023-03-24T08:37:05.272Z,99233.75
2023-03-24T08:39:31.677Z,99230.28
2023-03-24T08:41:58.123Z,99189.91
2023-03-24T08:44:24.489Z,99178.19
2023-03-24T08:46:50.935Z,99147.66
2023-03-24T08:49:17.532Z,99110.53
2023-03-24T08:51:44.772Z,99086.38
2023-03-24T08:54:11.493Z,99106.59
2023-03-24T08:56:38.963Z,99057.72
2023-03-24T08:59:07.125Z,99053.59
2023-03-24T09:01:33.889Z,99079.16
2023-03-24T09:04:00.309Z,99093.38
2023-03-24T09:06:26.863Z,99063.47
2023-03-24T09:08:54.685Z,99001.59
2023-03-24T09:11:22.499Z,98965.88
2023-03-24T09:13:49.517Z,98933.88
2023-03-24T09:16:17.441Z,98975.97
2023-03-24T09:18:44.586Z,98977.59
2023-03-24T09:21:11.099Z,98935.88
2023-03-24T09:23:37.576Z,98910.28
2023-03-24T09:26:05.375Z,98885.56
2023-03-24T09:28:32.136Z,98915.63
2023-03-24T09:31:00.987Z,98914.41
2023-03-24T09:33:27.637Z,98906.84
2023-03-24T09:36:00.030Z,98877.75
2023-03-24T09:38:27.775Z,98851.00
2023-03-24T09:40:58.060Z,98800.53
2023-03-24T09:43:31.738Z,98775.84
2023-03-24T09:46:01.118Z,98720.06
2023-03-24T09:48:36.926Z,98686.78
2023-03-24T09:51:20.414Z,98626.03
2023-03-24T09:53:52.900Z,98608.59
2023-03-24T09:56:25.861Z,98565.78
2023-03-24T09:59:04.352Z,98605.03
2023-03-24T10:01:30.887Z,98544.25
2023-03-24T10:04:00.207Z,98486.47
2023-03-24T10:06:36.786Z,98472.75
2023-03-24T10:09:20.811Z,98401.44
2023-03-24T10:11:54.167Z,98325.94
2023-03-24T10:14:44.128Z,98323.88
2023-03-24T10:17:33.484Z,98293.69
2023-03-24T10:20:06.181Z,98317.09
2023-03-24T10:22:35.529Z,98293.03
2023-03-24T10:25:23.911Z,98281.06
2023-03-24T10:27:59.761Z,98311.06
2023-03-24T10:30:33.264Z,98267.75
2023-03-24T10:32:59.684Z,98271.50
2023-03-24T10:35:30.553Z,98262.00
2023-03-24T10:38:01.030Z,98249.69
2023-03-24T10:40:33.192Z,98215.50
2023-03-24T10:43:06.841Z,98240.75
2023-03-24T10:45:39.415Z,98225.66
2023-03-24T10:48:06.442Z,98206.28
2023-03-24T10:50:33.694Z,98225.66
2023-03-24T10:53:00.161Z,98202.38
2023-03-24T10:55:35.514Z,98190.72
2023-03-24T10:58:02.922Z,98203.22
2023-03-24T11:00:31.408Z,98209.72
2023-03-24T11:03:05.097Z,98191.03
2023-03-24T11:05:37.586Z,98246.59
2023-03-24T11:08:22.865Z,98247.50
2023-03-24T11:10:52.116Z,98236.16
2023-03-24T11:13:40.049Z,98216.34
2023-03-24T11:16:15.420Z,98175.63
2023-03-24T11:19:03.199Z,98151.63
2023-03-24T11:21:33.149Z,98130.16
2023-03-24T11:24:02.293Z,98123.66
2023-03-24T11:26:33.943Z,98060.19
2023-03-24T11:29:05.368Z,98062.50
2023-03-24T11:31:34.414Z,98035.03
2023-03-24T11:34:07.473Z,98016.78
2023-03-24T11:36:44.038Z,98027.63
2023-03-24T11:39:14.516Z,97990.59
2023-03-24T11:41:59.868Z,97978.84
2023-03-24T11:44:26.588Z,97998.44
2023-03-24T11:47:00.535Z,97993.47
2023-03-24T11:49:31.593Z,97986.19
2023-03-24T11:51:58.947Z,97995.66
2023-03-24T11:54:35.662Z,97988.91
2023-03-24T11:57:16.496Z,97996.53
2023-03-24T11:59:56.520Z,97970.25
2023-03-24T12:02:47.860Z,97979.63
2023-03-24T12:05:30.794Z,97984.09
2023-03-24T12:08:03.597Z,98005.78
2023-03-24T12:10:41.541Z,98015.00
2023-03-24T12:13:31.814Z,98012.72
2023-03-24T12:16:23.291Z,97980.53
2023-03-24T12:19:04.740Z,97982.53
2023-03-24T12:21:52.949Z,97969.50
2023-03-24T12:24:38.915Z,97970.75
2023-03-24T12:27:05.279Z,97972.59
2023-03-24T12:29:47.220Z,97984.44
2023-03-24T12:32:24.237Z,97964.63
2023-03-24T12:35:12.475Z,97966.25
2023-03-24T12:37:57.050Z,97972.75
2023-03-24T12:40:58.935Z,97986.78
2023-03-24T12:44:03.543Z,97995.94
2023-03-24T12:47:07.673Z,98001.25
2023-03-24T12:49:52.384Z,97982.47
2023-03-24T12:52:49.060Z,97979.03
2023-03-24T12:55:38.232Z,97975.78
2023-03-24T12:58:26.298Z,97967.75
2023-03-24T13:01:05.202Z,97974.44
2023-03-24T13:03:48.357Z,97973.25
2023-03-24T13:06:24.434Z,97957.78
2023-03-24T13:09:08.351Z,97938.75
2023-03-24T13:11:43.164Z,97942.34
2023-03-24T13:14:16.719Z,97934.72
2023-03-24T13:16:47.695Z,97942.72
2023-03-24T13:19:24.043Z,97935.41
2023-03-24T13:21:54.387Z,97919.75
2023-03-24T13:24:21.089Z,97938.50
2023-03-24T13:27:01.101Z,97929.56
2023-03-24T13:30:00.359Z,97925.28
2023-03-24T13:32:36.129Z,97923.63
2023-03-24T13:35:24.460Z,97928.19
2023-03-24T13:37:55.325Z,97928.69
2023-03-24T13:40:26.922Z,97921.19
2023-03-24T13:42:57.115Z,97942.28
2023-03-24T13:45:35.300Z,97942.59
2023-03-24T13:48:09.599Z,97942.78
2023-03-24T13:50:53.712Z,97932.53
2023-03-24T13:53:30.833Z,97918.44
2023-03-24T13:55:57.702Z,97927.00
2023-03-24T13:58:26.449Z,97944.13
2023-03-24T14:01:11.763Z,97956.06
2023-03-24T14:03:41.643Z,97947.75
2023-03-24T14:06:10.015Z,97948.25
2023-03-24T14:08:55.678Z,97954.88
2023-03-24T14:12:03.454Z,97947.19
2023-03-24T14:14:30.589Z,97932.28
2023-03-24T14:17:06.478Z,97933.38
2023-03-24T14:19:38.629Z,97931.47
2023-03-24T14:22:33.781Z,97933.59
2023-03-24T14:25:22.624Z,97934.34
2023-03-24T14:27:55.534Z,97934.56
2023-03-24T14:30:28.518Z,97950.47
2023-03-24T14:32:57.130Z,97941.81
2023-03-24T14:35:44.877Z,97945.09
2023-03-24T14:38:17.105Z,97951.28
2023-03-24T14:40:46.654Z,97964.63
2023-03-24T14:43:17.197Z,97961.34
2023-03-24T14:45:53.889Z,97972.78
2023-03-24T14:48:29.934Z,97974.72
2023-03-24T14:51:03.482Z,97978.44
2023-03-24T14:53:30.224Z,97985.00
2023-03-24T14:55:57.106Z,97988.22
2023-03-24T14:58:37.682Z,97982.94
2023-03-24T15:01:07.872Z,97987.03
2023-03-24T15:03:48.931Z,97988.97
2023-03-24T15:06:20.157Z,97982.03
2023-03-24T15:08:54.145Z,97978.75
2023-03-24T15:11:25.919Z,98005.16
2023-03-24T15:13:54.844Z,98005.78
2023-03-24T15:16:27.478Z,97996.72
2023-03-24T15:19:02.094Z,97997.44
2023-03-24T15:21:34.306Z,97993.50
2023-03-24T15:24:02.273Z,98000.38
2023-03-24T15:26:31.162Z,97991.47
2023-03-24T15:29:04.487Z,98021.41
2023-03-24T15:31:31.565Z,98039.63
2023-03-24T15:34:05.592Z,98041.28
2023-03-24T15:36:39.092Z,98039.41
2023-03-24T15:39:20.272Z,98037.19
2023-03-24T15:41:50.762Z,98028.06
2023-03-24T15:44:19.542Z,98031.34
2023-03-24T15:46:46.729Z,98040.34
2023-03-24T15:49:25.892Z,98049.38
2023-03-24T15:52:18.928Z,98051.13
2023-03-24T15:54:45.707Z,98105.28
2023-03-24T15:57:18.260Z,98367.81
2023-03-24T16:00:14.104Z,98510.66
2023-03-24T16:02:48.764Z,98534.69
2023-03-24T16:05:21.348Z,98580.91
2023-03-24T16:07:58.487Z,98614.56
2023-03-24T16:10:26.839Z,98629.38
2023-03-24T16:12:53.508Z,98699.59
2023-03-24T16:15:19.929Z,98710.09
2023-03-24T16:17:46.383Z,98734.59
2023-03-24T16:20:20.227Z,98767.53
2023-03-24T16:22:46.621Z,98782.16
2023-03-24T16:25:14.979Z,98819.81
2023-03-24T16:27:41.630Z,98870.84
2023-03-24T16:30:19.984Z,98921.88
2023-03-24T16:32:46.612Z,98895.72
2023-03-24T16:35:13.324Z,98896.38
2023-03-24T16:37:39.826Z,98835.06
2023-03-24T16:40:25.492Z,98820.22
2023-03-24T16:42:51.950Z,98785.44
2023-03-24T16:45:18.481Z,98789.56
2023-03-24T16:47:44.944Z,98800.28
2023-03-24T16:50:23.557Z,98787.72
2023-03-24T16:52:50.189Z,98781.72
2023-03-24T16:55:16.608Z,98777.81
2023-03-24T16:57:43.144Z,98767.53
2023-03-24T17:00:10.364Z,98742.81
2023-03-24T17:02:40.856Z,98734.78
2023-03-24T17:05:29.649Z,98724.28
2023-03-24T17:07:56.961Z,98725.72
2023-03-24T17:10:25.254Z,98727.34
2023-03-24T17:12:54.388Z,98743.22
2023-03-24T17:15:24.867Z,98767.53
2023-03-24T17:17:51.617Z,98776.81
2023-03-24T17:20:19.355Z,98705.53
2023-03-24T17:22:47.422Z,98710.88
2023-03-24T17:25:22.428Z,98792.66
2023-03-24T17:27:49.949Z,98816.94
2023-03-24T17:30:21.796Z,98846.19
2023-03-24T17:32:49.653Z,98845.59
2023-03-24T17:35:18.863Z,98835.88
2023-03-24T17:37:46.186Z,98880.16
2023-03-24T17:40:14.636Z,98880.97
2023-03-24T17:42:45.804Z,98880.56
2023-03-24T17:45:15.680Z,98903.81
2023-03-24T17:47:42.481Z,98827.22
2023-03-24T17:50:09.559Z,98597.28
2023-03-24T17:52:37.407Z,98495.22
2023-03-24T17:55:05.039Z,98493.63
2023-03-24T17:57:32.422Z,98488.50
2023-03-24T17:59:59.097Z,98500.44
2023-03-24T18:02:25.857Z,98487.28
2023-03-24T18:04:52.371Z,98487.75
2023-03-24T18:07:18.782Z,98519.44
2023-03-24T18:09:45.595Z,98544.72
2023-03-24T18:12:12.005Z,98570.84
2023-03-24T18:14:38.509Z,98545.78
2023-03-24T18:17:05.062Z,98518.66
2023-03-24T18:19:31.551Z,98560.16
2023-03-24T18:21:58.026Z,98547.84
2023-03-24T18:24:24.516Z,98570.84
2023-03-24T18:26:51.037Z,98586.88
2023-03-24T18:29:17.772Z,98586.88
2023-03-24T18:31:44.391Z,98583.19
2023-03-24T18:34:10.886Z,98566.97
2023-03-24T18:36:37.419Z,98582.78
2023-03-24T18:39:09.198Z,98613.13
2023-03-24T18:41:37.424Z,98630.19
2023-03-24T18:44:07.041Z,98625.41
2023-03-24T18:46:34.032Z,98627.09
2023-03-24T18:49:00.577Z,98628.69
2023-03-24T18:51:27.434Z,98652.09
2023-03-24T18:53:53.948Z,98642.44
2023-03-24T18:56:20.940Z,98669.31
2023-03-24T18:58:48.339Z,98683.06
2023-03-24T19:01:17.448Z,98669.53
2023-03-24T19:03:44.835Z,98693.56
2023-03-24T19:06:13.637Z,98692.75
2023-03-24T19:08:42.906Z,98702.22
2023-03-24T19:11:11.138Z,98720.66
2023-03-24T19:13:38.352Z,98685.16
2023-03-24T19:16:05.836Z,98672.22
2023-03-24T19:18:32.578Z,98679.38
2023-03-24T19:20:59.248Z,98716.91
2023-03-24T19:23:26.667Z,98732.44
2023-03-24T19:25:53.365Z,98742.69
2023-03-24T19:28:19.805Z,98751.94
2023-03-24T19:30:46.368Z,98723.66
2023-03-24T19:33:12.984Z,98658.16
2023-03-24T19:35:39.834Z,98660.19
2023-03-24T19:38:06.378Z,98681.88
2023-03-24T19:40:32.803Z,98708.72
2023-03-24T19:42:59.327Z,98716.13
2023-03-24T19:45:25.766Z,98721.84
2023-03-24T19:47:52.565Z,98710.97
2023-03-24T19:50:19.883Z,98679.75
2023-03-24T19:52:46.407Z,98669.47
2023-03-24T19:55:13.658Z,98662.88
2023-03-24T19:57:41.208Z,98668.44
2023-03-24T20:00:14.171Z,98636.00
2023-03-24T20:02:41.633Z,98639.91
2023-03-24T20:05:09.363Z,98630.66
2023-03-24T20:07:36.190Z,98625.94
2023-03-24T20:10:02.807Z,98606.22
2023-03-24T20:12:29.206Z,98562.16
2023-03-24T20:14:55.684Z,98578.31
2023-03-24T20:17:23.869Z,98576.25
2023-03-24T20:19:50.715Z,98558.19
2023-03-24T20:22:17.566Z,98575.66
2023-03-24T20:24:44.994Z,98542.84
2023-03-24T20:27:12.347Z,98540.16
2023-03-24T20:29:43.015Z,98518.06
2023-03-24T20:32:09.637Z,98491.38
2023-03-24T20:34:38.815Z,98469.63
2023-03-24T20:37:07.731Z,98480.28
2023-03-24T20:39:35.053Z,98445.03
2023-03-24T20:42:01.529Z,98443.56
2023-03-24T20:44:29.001Z,98471.44
2023-03-24T20:46:58.830Z,98466.50
2023-03-24T20:49:26.021Z,98459.50
2023-03-24T20:51:53.480Z,98485.53
2023-03-24T20:54:20.620Z,98495.31
2023-03-24T20:56:48.021Z,98507.78
2023-03-24T20:59:14.921Z,98522.16
2023-03-24T21:01:41.604Z,98499.44
2023-03-24T21:04:09.599Z,98495.13
2023-03-24T21:06:39.369Z,98506.38
2023-03-24T21:09:06.183Z,98502.25
2023-03-24T21:11:33.062Z,98524.16
2023-03-24T21:14:00.048Z,98519.69
2023-03-24T21:16:27.286Z,98524.19
2023-03-24T21:18:54.706Z,98510.88
2023-03-24T21:21:21.588Z,98507.59
2023-03-24T21:23:48.456Z,98491.19
2023-03-24T21:26:16.710Z,98494.53
2023-03-24T21:28:43.746Z,98495.72
2023-03-24T21:31:16.519Z,98481.16
2023-03-24T21:33:43.264Z,98487.13
2023-03-24T21:36:12.921Z,98497.56
2023-03-24T21:38:39.731Z,98503.91
2023-03-24T21:41:07.090Z,98489.34
2023-03-24T21:43:33.934Z,98477.47
2023-03-24T21:46:00.915Z,98457.59
2023-03-24T21:48:27.356Z,98448.63
2023-03-24T21:50:55.130Z,98439.81
2023-03-24T21:53:23.077Z,98431.81
2023-03-24T21:55:53.434Z,98463.41
2023-03-24T21:58:20.108Z,98425.03
2023-03-24T22:00:47.841Z,98463.03
2023-03-24T22:03:14.701Z,98427.31
2023-03-24T22:05:41.320Z,98442.09
2023-03-24T22:08:09.240Z,98443.94
2023-03-24T22:10:36.633Z,98447.84
2023-03-24T22:13:04.318Z,98436.56
2023-03-24T22:15:33.336Z,98420.75
2023-03-24T22:18:00.834Z,98432.84
2023-03-24T22:20:27.471Z,98431.44
2023-03-24T22:22:54.373Z,98443.94
2023-03-24T22:25:21.182Z,98430.59
2023-03-24T22:27:47.701Z,98420.34
2023-03-24T22:30:15.063Z,98435.09
2023-03-24T22:32:41.907Z,98419.72
2023-03-24T22:35:08.786Z,98442.91
2023-03-24T22:37:35.345Z,98445.16
2023-03-24T22:40:03.268Z,98441.06
2023-03-24T22:42:29.753Z,98444.38
2023-03-24T22:44:56.544Z,98431.84
2023-03-24T22:47:23.294Z,98431.84
2023-03-24T22:49:49.695Z,98446.81
2023-03-24T22:52:16.199Z,98460.38
2023-03-24T22:54:42.664Z,98467.75
2023-03-24T22:57:09.076Z,98480.06
2023-03-24T22:59:35.457Z,98498.13
2023-03-24T23:02:09.117Z,98494.81
2023-03-24T23:04:36.140Z,98499.75
2023-03-24T23:07:02.567Z,98481.31
2023-03-24T23:09:29.107Z,98474.13
2023-03-24T23:11:56.016Z,98474.75
2023-03-24T23:14:22.498Z,98497.75
2023-03-24T23:16:49.001Z,98529.34
2023-03-24T23:19:15.347Z,98552.97
2023-03-24T23:21:41.736Z,98558.28
2023-03-24T23:24:08.287Z,98563.78
2023-03-24T23:26:35.158Z,98575.47
2023-03-24T23:29:01.480Z,98597.38
2023-03-24T23:31:29.429Z,98630.56
2023-03-24T23:33:57.070Z,98566.78
2023-03-24T23:36:27.146Z,98552.41
2023-03-24T23:38:54.410Z,98570.63
2023-03-24T23:41:21.270Z,98547.84
2023-03-24T23:43:49.207Z,98543.75
2023-03-24T23:46:16.291Z,98538.63
2023-03-24T23:48:43.042Z,98526.53
2023-03-24T23:51:09.772Z,98534.56
2023-03-24T23:53:36.808Z,98536.00
2023-03-24T23:56:06.476Z,98558.38
2023-03-24T23:58:38.464Z,98579.88
